createdAt,value
2018-06-29T00:02:45.609Z,2.60
2018-06-29T00:07:48.930Z,2.90
2018-06-29T00:12:52.070Z,2.40
2018-06-29T00:17:57.444Z,2.63
2018-06-29T00:23:00.600Z,3.00
2018-06-29T00:28:04.643Z,2.77
2018-06-29T00:33:07.758Z,2.87
2018-06-29T00:38:10.832Z,2.83
2018-06-29T00:43:14.013Z,3.00
2018-06-29T00:48:17.231Z,3.20
2018-06-29T00:53:20.461Z,3.33
2018-06-29T00:58:23.604Z,3.10
2018-06-29T01:03:26.836Z,3.00
2018-06-29T01:08:29.942Z,3.20
2018-06-29T01:13:33.309Z,3.00
2018-06-29T01:18:36.460Z,2.40
2018-06-29T01:23:39.587Z,2.63
2018-06-29T01:28:42.676Z,2.60
2018-06-29T01:33:45.986Z,3.10
2018-06-29T01:38:49.305Z,3.00
2018-06-29T01:43:52.485Z,3.10
2018-06-29T01:48:55.767Z,3.10
2018-06-29T01:53:59.078Z,2.83
2018-06-29T01:59:02.179Z,2.87
2018-06-29T02:04:05.656Z,2.93
2018-06-29T02:09:08.773Z,2.80
2018-06-29T02:14:11.970Z,2.80
2018-06-29T02:19:15.080Z,3.00
2018-06-29T02:24:18.396Z,2.80
2018-06-29T02:29:21.634Z,3.00
2018-06-29T02:34:24.782Z,3.30
2018-06-29T02:39:27.935Z,2.70
2018-06-29T02:44:31.061Z,2.87
2018-06-29T02:49:34.181Z,2.80
2018-06-29T02:54:38.020Z,2.63
2018-06-29T02:59:41.116Z,2.67
2018-06-29T03:04:44.260Z,3.00
2018-06-29T03:09:47.626Z,2.90
2018-06-29T03:14:50.873Z,2.50
2018-06-29T03:19:54.141Z,2.90
2018-06-29T03:24:57.429Z,2.90
2018-06-29T03:30:00.632Z,2.60
2018-06-29T03:35:03.894Z,3.00
2018-06-29T03:40:07.081Z,2.83
2018-06-29T03:45:10.231Z,2.40
2018-06-29T03:50:13.352Z,3.00
2018-06-29T03:55:16.924Z,2.90
2018-06-29T04:00:20.448Z,2.70
2018-06-29T04:05:23.720Z,2.30
2018-06-29T04:10:26.876Z,2.70
2018-06-29T04:15:29.988Z,2.93
2018-06-29T04:20:33.094Z,2.43
2018-06-29T04:25:36.253Z,2.70
2018-06-29T04:30:39.602Z,2.80
2018-06-29T04:35:45.038Z,2.20
2018-06-29T04:40:48.164Z,2.13
2018-06-29T04:45:51.913Z,2.03
2018-06-29T04:50:55.209Z,2.37
2018-06-29T04:55:58.620Z,2.27
2018-06-29T05:01:01.920Z,2.00
2018-06-29T05:06:05.429Z,1.70
2018-06-29T05:11:08.689Z,2.33
2018-06-29T05:16:11.829Z,1.67
2018-06-29T05:21:15.707Z,2.27
2018-06-29T05:26:18.926Z,2.08
2018-06-29T05:31:22.081Z,2.00
2018-06-29T05:36:25.260Z,1.82
2018-06-29T05:41:28.476Z,2.00
2018-06-29T05:46:31.611Z,1.85
2018-06-29T05:51:35.113Z,1.90
2018-06-29T05:56:39.078Z,1.90
2018-06-29T06:01:43.186Z,1.82
2018-06-29T06:06:46.292Z,1.87
2018-06-29T06:11:49.566Z,2.15
2018-06-29T06:16:52.697Z,1.92
2018-06-29T06:21:55.833Z,2.00
2018-06-29T06:26:59.118Z,2.10
2018-06-29T06:32:02.488Z,1.80
2018-06-29T06:37:05.775Z,2.15
2018-06-29T06:42:08.919Z,2.10
2018-06-29T06:47:12.081Z,1.82
2018-06-29T06:52:15.215Z,1.90
2018-06-29T06:57:18.410Z,2.05
2018-06-29T07:02:21.510Z,2.08
2018-06-29T07:07:24.635Z,1.90
2018-06-29T07:12:28.132Z,2.08
2018-06-29T07:17:31.437Z,1.90
2018-06-29T07:22:34.718Z,2.08
2018-06-29T07:27:38.127Z,1.67
2018-06-29T07:32:41.290Z,1.70
2018-06-29T07:37:44.464Z,2.02
2018-06-29T07:42:48.411Z,1.90
2018-06-29T07:47:51.572Z,1.80
2018-06-29T07:52:54.754Z,2.20
2018-06-29T07:57:57.876Z,1.72
2018-06-29T08:03:01.132Z,2.00
2018-06-29T08:08:05.937Z,1.95
2018-06-29T08:13:09.859Z,1.92
2018-06-29T08:18:13.026Z,1.90
2018-06-29T08:23:16.086Z,1.92
2018-06-29T08:28:19.229Z,2.02
2018-06-29T08:33:22.376Z,2.00
2018-06-29T08:38:25.522Z,1.90
2018-06-29T08:43:28.865Z,2.08
2018-06-29T08:48:32.266Z,2.05
2018-06-29T08:53:35.475Z,1.70
2018-06-29T08:58:38.618Z,2.20
2018-06-29T09:03:41.833Z,1.65
2018-06-29T09:08:44.936Z,1.40
2018-06-29T09:13:48.102Z,1.52
2018-06-29T09:18:51.475Z,1.57
2018-06-29T09:23:54.614Z,1.72
2018-06-29T09:28:57.777Z,2.02
2018-06-29T09:34:00.988Z,1.50
2018-06-29T09:39:07.095Z,1.40
2018-06-29T09:44:10.276Z,1.35
2018-06-29T09:49:13.517Z,1.52
2018-06-29T09:54:16.594Z,1.57
2018-06-29T09:59:19.820Z,1.82
2018-06-29T10:04:23.005Z,1.32
2018-06-29T10:09:26.252Z,1.42
2018-06-29T10:14:29.919Z,1.90
2018-06-29T10:19:33.170Z,1.40
2018-06-29T10:24:36.384Z,1.40
2018-06-29T10:29:39.537Z,1.47
2018-06-29T10:34:42.655Z,1.57
2018-06-29T10:39:45.755Z,1.50
2018-06-29T10:44:49.006Z,1.70
2018-06-29T10:49:52.123Z,1.67
2018-06-29T10:54:55.259Z,1.77
2018-06-29T10:59:58.406Z,1.40
2018-06-29T11:05:01.645Z,1.65
2018-06-29T11:10:06.381Z,1.70
2018-06-29T11:15:09.754Z,2.05
2018-06-29T11:20:12.884Z,1.65
2018-06-29T11:25:15.992Z,1.85
2018-06-29T11:30:19.091Z,1.50
2018-06-29T11:35:22.218Z,1.70
2018-06-29T11:40:25.358Z,1.62
2018-06-29T11:45:28.572Z,1.60
2018-06-29T11:50:32.005Z,1.60
2018-06-29T11:55:35.842Z,1.62
2018-06-29T12:00:39.222Z,1.50
2018-06-29T12:05:42.236Z,1.70
2018-06-29T12:10:45.432Z,1.60
2018-06-29T12:15:49.331Z,1.50
2018-06-29T12:20:52.550Z,1.70
2018-06-29T12:25:55.693Z,1.87
2018-06-29T12:30:58.968Z,1.80
2018-06-29T12:36:02.286Z,1.50
2018-06-29T12:41:05.526Z,1.45
2018-06-29T12:46:08.671Z,1.35
2018-06-29T12:51:11.736Z,1.50
2018-06-29T12:56:15.039Z,1.42
2018-06-29T13:01:18.196Z,1.32
2018-06-29T13:06:21.370Z,1.60
2018-06-29T13:11:24.638Z,1.52
2018-06-29T13:16:27.917Z,1.30
2018-06-29T13:21:31.198Z,1.35
2018-06-29T13:26:34.559Z,1.40
2018-06-29T13:31:37.687Z,1.30
2018-06-29T13:36:40.918Z,1.37
2018-06-29T13:41:44.078Z,1.27
2018-06-29T13:46:47.210Z,1.10
2018-06-29T13:51:50.417Z,1.40
2018-06-29T13:56:53.653Z,1.15
2018-06-29T14:01:57.758Z,1.17
2018-06-29T14:07:01.707Z,1.42
2018-06-29T14:12:04.863Z,1.12
2018-06-29T14:17:07.944Z,1.40
2018-06-29T14:22:11.157Z,1.20
2018-06-29T14:27:14.388Z,1.75
2018-06-29T14:32:17.521Z,1.87
2018-06-29T14:37:20.635Z,1.90
2018-06-29T14:42:24.123Z,1.90
2018-06-29T14:47:27.636Z,2.00
2018-06-29T14:52:30.770Z,2.12
2018-06-29T14:57:34.927Z,1.70
2018-06-29T15:02:38.110Z,1.30
2018-06-29T15:07:41.280Z,1.30
2018-06-29T15:12:44.390Z,1.70
2018-06-29T15:17:47.558Z,1.57
2018-06-29T15:22:50.838Z,1.12
2018-06-29T15:27:54.085Z,2.22
2018-06-29T15:32:57.338Z,1.45
2018-06-29T15:38:00.580Z,1.62
2018-06-29T15:43:04.150Z,1.72
2018-06-29T15:48:07.908Z,1.65
2018-06-29T15:53:11.323Z,1.70
2018-06-29T15:58:14.665Z,1.82
2018-06-29T16:03:17.824Z,1.80
2018-06-29T16:08:21.100Z,2.10
2018-06-29T16:13:24.640Z,2.20
2018-06-29T16:18:27.803Z,2.00
2018-06-29T16:23:30.991Z,3.03
2018-06-29T16:28:34.147Z,2.70
2018-06-29T16:33:37.316Z,2.80
2018-06-29T16:38:40.487Z,3.73
2018-06-29T16:43:43.781Z,3.53
2018-06-29T16:48:49.025Z,3.50
2018-06-29T16:53:52.212Z,3.60
2018-06-29T16:58:55.989Z,3.40
2018-06-29T17:03:59.235Z,3.00
2018-06-29T17:09:02.908Z,2.73
2018-06-29T17:14:06.102Z,3.00
2018-06-29T17:19:09.224Z,2.90
2018-06-29T17:24:12.800Z,2.37
2018-06-29T17:29:16.300Z,2.37
2018-06-29T17:34:19.563Z,2.30
2018-06-29T17:39:22.737Z,2.30
2018-06-29T17:44:25.832Z,2.10
2018-06-29T17:49:29.002Z,2.93
2018-06-29T17:54:32.153Z,2.60
2018-06-29T17:59:35.241Z,2.60
2018-06-29T18:04:38.540Z,2.23
2018-06-29T18:09:41.707Z,2.30
2018-06-29T18:14:45.266Z,2.13
2018-06-29T18:19:48.495Z,2.30
2018-06-29T18:24:51.951Z,2.17
2018-06-29T18:29:55.453Z,2.67
2018-06-29T18:34:58.902Z,2.33
2018-06-29T18:40:02.379Z,2.40
2018-06-29T18:45:06.844Z,2.40
2018-06-29T18:50:10.844Z,2.50
2018-06-29T18:55:17.676Z,2.60
2018-06-29T19:00:21.466Z,2.57
2018-06-29T19:05:25.562Z,2.03
2018-06-29T19:10:30.317Z,2.00
2018-06-29T19:15:35.906Z,2.10
2018-06-29T19:20:40.378Z,2.10
2018-06-29T19:25:44.198Z,1.70
2018-06-29T19:30:47.940Z,2.17
2018-06-29T19:35:52.469Z,2.20
2018-06-29T19:40:56.644Z,1.80
2018-06-29T19:46:00.411Z,1.83
2018-06-29T19:51:03.953Z,1.90
2018-06-29T19:56:07.848Z,1.80
2018-06-29T20:01:10.983Z,2.13
2018-06-29T20:06:14.288Z,1.80
2018-06-29T20:11:17.514Z,1.67
2018-06-29T20:16:20.683Z,1.90
2018-06-29T20:21:23.895Z,2.07
2018-06-29T20:26:27.109Z,1.70
2018-06-29T20:31:30.299Z,2.27
2018-06-29T20:36:33.385Z,2.00
2018-06-29T20:41:36.563Z,1.40
2018-06-29T20:46:39.681Z,1.00
2018-06-29T20:51:42.822Z,1.00
2018-06-29T20:56:46.068Z,1.10
2018-06-29T21:01:49.336Z,1.13
2018-06-29T21:06:52.860Z,1.20
2018-06-29T21:11:56.709Z,1.00
2018-06-29T21:16:59.864Z,1.00
2018-06-29T21:22:03.080Z,1.20
2018-06-29T21:27:06.658Z,1.20
2018-06-29T21:32:09.816Z,1.10
2018-06-29T21:37:12.955Z,1.10
2018-06-29T21:42:16.172Z,1.23
2018-06-29T21:47:19.390Z,1.20
2018-06-29T21:52:22.955Z,1.30
2018-06-29T21:57:26.113Z,1.30
2018-06-29T22:02:29.287Z,1.13
2018-06-29T22:07:32.497Z,1.27
2018-06-29T22:12:35.654Z,1.13
2018-06-29T22:17:38.796Z,1.20
2018-06-29T22:22:41.970Z,1.10
2018-06-29T22:27:45.154Z,1.10
2018-06-29T22:32:48.265Z,1.20
2018-06-29T22:37:51.507Z,1.20
2018-06-29T22:42:55.067Z,1.00
2018-06-29T22:47:58.212Z,1.13
2018-06-29T22:53:01.313Z,1.30
2018-06-29T22:58:04.815Z,0.90
2018-06-29T23:03:08.146Z,1.03
2018-06-29T23:08:11.432Z,1.07
2018-06-29T23:13:14.989Z,1.07
2018-06-29T23:18:18.146Z,0.90
2018-06-29T23:23:21.312Z,0.73
2018-06-29T23:28:24.545Z,0.70
2018-06-29T23:33:27.660Z,1.00
2018-06-29T23:38:30.794Z,0.93
2018-06-29T23:43:34.916Z,0.90
2018-06-29T23:48:38.332Z,0.60
2018-06-29T23:53:41.439Z,0.87
2018-06-29T23:58:44.672Z,0.77
